sensor_id;sensor_type;location;lat;lon;timestamp;temperature;humidity
33095;DHT22;19459;53.044;8.910;2024-03-08T00:00:09;2.30;99.90
33095;DHT22;19459;53.044;8.910;2024-03-08T00:02:41;2.30;99.90
33095;DHT22;19459;53.044;8.910;2024-03-08T00:05:08;2.30;99.90
33095;DHT22;19459;53.044;8.910;2024-03-08T00:07:35;2.20;99.90
33095;DHT22;19459;53.044;8.910;2024-03-08T00:10:03;2.20;99.90
33095;DHT22;19459;53.044;8.910;2024-03-08T00:12:32;2.20;99.90
33095;DHT22;19459;53.044;8.910;2024-03-08T00:14:58;2.20;99.90
33095;DHT22;19459;53.044;8.910;2024-03-08T00:17:24;2.20;99.90
33095;DHT22;19459;53.044;8.910;2024-03-08T00:19:53;2.10;99.90
33095;DHT22;19459;53.044;8.910;2024-03-08T00:22:18;2.10;99.90
33095;DHT22;19459;53.044;8.910;2024-03-08T00:24:44;2.10;99.90
33095;DHT22;19459;53.044;8.910;2024-03-08T00:27:11;2.00;99.90
33095;DHT22;19459;53.044;8.910;2024-03-08T00:29:37;2.00;99.90
33095;DHT22;19459;53.044;8.910;2024-03-08T00:32:05;2.00;99.90
33095;DHT22;19459;53.044;8.910;2024-03-08T00:34:35;2.00;99.90
33095;DHT22;19459;53.044;8.910;2024-03-08T00:37:02;1.90;99.90
33095;DHT22;19459;53.044;8.910;2024-03-08T00:39:29;1.90;99.90
33095;DHT22;19459;53.044;8.910;2024-03-08T00:41:55;1.90;99.90
33095;DHT22;19459;53.044;8.910;2024-03-08T00:44:21;1.90;99.90
33095;DHT22;19459;53.044;8.910;2024-03-08T00:46:46;1.90;99.90
33095;DHT22;19459;53.044;8.910;2024-03-08T00:49:12;1.80;99.90
33095;DHT22;19459;53.044;8.910;2024-03-08T00:51:38;1.80;99.90
33095;DHT22;19459;53.044;8.910;2024-03-08T00:54:04;1.80;99.90
33095;DHT22;19459;53.044;8.910;2024-03-08T00:56:30;1.80;99.90
33095;DHT22;19459;53.044;8.910;2024-03-08T00:58:55;1.80;99.90
33095;DHT22;19459;53.044;8.910;2024-03-08T01:01:22;1.80;99.90
33095;DHT22;19459;53.044;8.910;2024-03-08T01:03:47;1.80;99.90
33095;DHT22;19459;53.044;8.910;2024-03-08T01:06:14;1.80;99.90
33095;DHT22;19459;53.044;8.910;2024-03-08T01:08:40;1.70;99.90
33095;DHT22;19459;53.044;8.910;2024-03-08T01:11:08;1.70;99.90
33095;DHT22;19459;53.044;8.910;2024-03-08T01:13:34;1.70;99.90
33095;DHT22;19459;53.044;8.910;2024-03-08T01:16:01;1.70;99.90
33095;DHT22;19459;53.044;8.910;2024-03-08T01:18:27;1.60;99.90
33095;DHT22;19459;53.044;8.910;2024-03-08T01:20:52;1.60;99.90
33095;DHT22;19459;53.044;8.910;2024-03-08T01:23:18;1.60;99.90
33095;DHT22;19459;53.044;8.910;2024-03-08T01:25:44;1.60;99.90
33095;DHT22;19459;53.044;8.910;2024-03-08T01:28:10;1.50;99.90
33095;DHT22;19459;53.044;8.910;2024-03-08T01:30:36;1.50;99.90
33095;DHT22;19459;53.044;8.910;2024-03-08T01:33:03;1.40;99.90
33095;DHT22;19459;53.044;8.910;2024-03-08T01:35:29;1.40;99.90
33095;DHT22;19459;53.044;8.910;2024-03-08T01:37:54;1.40;99.90
33095;DHT22;19459;53.044;8.910;2024-03-08T01:40:20;1.40;99.90
33095;DHT22;19459;53.044;8.910;2024-03-08T01:42:46;1.40;99.90
33095;DHT22;19459;53.044;8.910;2024-03-08T01:45:13;1.40;99.90
33095;DHT22;19459;53.044;8.910;2024-03-08T01:47:39;1.30;99.90
33095;DHT22;19459;53.044;8.910;2024-03-08T01:50:05;1.30;99.90
33095;DHT22;19459;53.044;8.910;2024-03-08T01:52:33;1.30;99.90
33095;DHT22;19459;53.044;8.910;2024-03-08T01:55:03;1.30;99.90
33095;DHT22;19459;53.044;8.910;2024-03-08T01:57:32;1.20;99.90
33095;DHT22;19459;53.044;8.910;2024-03-08T02:00:03;1.20;99.90
33095;DHT22;19459;53.044;8.910;2024-03-08T02:02:32;1.20;99.90
33095;DHT22;19459;53.044;8.910;2024-03-08T02:05:03;1.20;99.90
33095;DHT22;19459;53.044;8.910;2024-03-08T02:07:30;1.20;99.90
33095;DHT22;19459;53.044;8.910;2024-03-08T02:09:57;1.20;99.90
33095;DHT22;19459;53.044;8.910;2024-03-08T02:12:23;1.20;99.90
33095;DHT22;19459;53.044;8.910;2024-03-08T02:14:48;1.20;99.90
33095;DHT22;19459;53.044;8.910;2024-03-08T02:17:14;1.20;99.90
33095;DHT22;19459;53.044;8.910;2024-03-08T02:19:40;1.20;99.90
33095;DHT22;19459;53.044;8.910;2024-03-08T02:22:06;1.20;99.90
33095;DHT22;19459;53.044;8.910;2024-03-08T02:24:32;1.20;99.90
33095;DHT22;19459;53.044;8.910;2024-03-08T02:26:59;1.20;99.90
33095;DHT22;19459;53.044;8.910;2024-03-08T02:29:25;1.20;99.90
33095;DHT22;19459;53.044;8.910;2024-03-08T02:31:53;1.20;99.90
33095;DHT22;19459;53.044;8.910;2024-03-08T02:34:21;1.20;99.90
33095;DHT22;19459;53.044;8.910;2024-03-08T02:36:46;1.20;99.90
33095;DHT22;19459;53.044;8.910;2024-03-08T02:39:12;1.20;99.90
33095;DHT22;19459;53.044;8.910;2024-03-08T02:41:38;1.20;99.90
33095;DHT22;19459;53.044;8.910;2024-03-08T02:44:04;1.10;99.90
33095;DHT22;19459;53.044;8.910;2024-03-08T02:46:30;1.10;99.90
33095;DHT22;19459;53.044;8.910;2024-03-08T02:48:56;1.10;99.90
33095;DHT22;19459;53.044;8.910;2024-03-08T02:51:22;1.00;99.90
33095;DHT22;19459;53.044;8.910;2024-03-08T02:53:47;1.00;99.90
33095;DHT22;19459;53.044;8.910;2024-03-08T02:56:17;1.00;99.90
33095;DHT22;19459;53.044;8.910;2024-03-08T02:58:43;1.00;99.90
33095;DHT22;19459;53.044;8.910;2024-03-08T03:01:14;1.00;99.90
33095;DHT22;19459;53.044;8.910;2024-03-08T03:03:41;1.00;99.90
33095;DHT22;19459;53.044;8.910;2024-03-08T03:06:08;1.00;99.90
33095;DHT22;19459;53.044;8.910;2024-03-08T03:08:33;0.90;99.90
33095;DHT22;19459;53.044;8.910;2024-03-08T03:10:59;1.00;99.90
33095;DHT22;19459;53.044;8.910;2024-03-08T03:13:25;0.90;99.90
33095;DHT22;19459;53.044;8.910;2024-03-08T03:15:50;0.90;99.90
33095;DHT22;19459;53.044;8.910;2024-03-08T03:18:17;1.00;99.90
33095;DHT22;19459;53.044;8.910;2024-03-08T03:20:46;0.90;99.90
33095;DHT22;19459;53.044;8.910;2024-03-08T03:23:12;0.90;99.90
33095;DHT22;19459;53.044;8.910;2024-03-08T03:25:39;0.90;99.90
33095;DHT22;19459;53.044;8.910;2024-03-08T03:28:06;0.90;99.90
33095;DHT22;19459;53.044;8.910;2024-03-08T03:30:33;0.90;99.90
33095;DHT22;19459;53.044;8.910;2024-03-08T03:33:02;0.90;99.90
33095;DHT22;19459;53.044;8.910;2024-03-08T03:35:32;0.90;99.90
33095;DHT22;19459;53.044;8.910;2024-03-08T03:37:58;0.90;99.90
33095;DHT22;19459;53.044;8.910;2024-03-08T03:40:37;0.80;99.90
33095;DHT22;19459;53.044;8.910;2024-03-08T03:43:04;0.80;99.90
33095;DHT22;19459;53.044;8.910;2024-03-08T03:45:30;0.80;99.90
33095;DHT22;19459;53.044;8.910;2024-03-08T03:48:06;0.80;99.90
33095;DHT22;19459;53.044;8.910;2024-03-08T03:50:34;0.80;99.90
33095;DHT22;19459;53.044;8.910;2024-03-08T03:53:01;0.80;99.90
33095;DHT22;19459;53.044;8.910;2024-03-08T03:55:28;0.80;99.90
33095;DHT22;19459;53.044;8.910;2024-03-08T03:57:54;0.70;99.90
33095;DHT22;19459;53.044;8.910;2024-03-08T04:00:20;0.80;99.90
33095;DHT22;19459;53.044;8.910;2024-03-08T04:02:46;0.80;99.90
33095;DHT22;19459;53.044;8.910;2024-03-08T04:05:12;0.80;99.90
33095;DHT22;19459;53.044;8.910;2024-03-08T04:07:39;0.70;99.90
33095;DHT22;19459;53.044;8.910;2024-03-08T04:10:06;0.70;99.90
33095;DHT22;19459;53.044;8.910;2024-03-08T04:12:33;0.70;99.90
33095;DHT22;19459;53.044;8.910;2024-03-08T04:14:59;0.70;99.90
33095;DHT22;19459;53.044;8.910;2024-03-08T04:17:25;0.70;99.90
33095;DHT22;19459;53.044;8.910;2024-03-08T04:19:51;0.70;99.90
33095;DHT22;19459;53.044;8.910;2024-03-08T04:22:18;0.70;99.90
33095;DHT22;19459;53.044;8.910;2024-03-08T04:24:44;0.70;99.90
33095;DHT22;19459;53.044;8.910;2024-03-08T04:27:11;0.70;99.90
33095;DHT22;19459;53.044;8.910;2024-03-08T04:29:37;0.70;99.90
33095;DHT22;19459;53.044;8.910;2024-03-08T04:32:04;0.60;99.90
33095;DHT22;19459;53.044;8.910;2024-03-08T04:34:32;0.70;99.90
33095;DHT22;19459;53.044;8.910;2024-03-08T04:36:59;0.70;99.90
33095;DHT22;19459;53.044;8.910;2024-03-08T04:39:26;0.70;99.90
33095;DHT22;19459;53.044;8.910;2024-03-08T04:41:56;0.60;99.90
33095;DHT22;19459;53.044;8.910;2024-03-08T04:44:24;0.60;99.90
33095;DHT22;19459;53.044;8.910;2024-03-08T04:46:50;0.60;99.90
33095;DHT22;19459;53.044;8.910;2024-03-08T04:49:16;0.60;99.90
33095;DHT22;19459;53.044;8.910;2024-03-08T04:51:42;0.60;99.90
33095;DHT22;19459;53.044;8.910;2024-03-08T04:54:08;0.60;99.90
33095;DHT22;19459;53.044;8.910;2024-03-08T04:56:33;0.60;99.90
33095;DHT22;19459;53.044;8.910;2024-03-08T04:59:02;0.60;99.90
33095;DHT22;19459;53.044;8.910;2024-03-08T05:01:28;0.60;99.90
33095;DHT22;19459;53.044;8.910;2024-03-08T05:03:54;0.60;99.90
33095;DHT22;19459;53.044;8.910;2024-03-08T05:06:20;0.60;99.90
33095;DHT22;19459;53.044;8.910;2024-03-08T05:08:46;0.60;99.90
33095;DHT22;19459;53.044;8.910;2024-03-08T05:11:12;0.60;99.90
33095;DHT22;19459;53.044;8.910;2024-03-08T05:13:40;0.50;99.90
33095;DHT22;19459;53.044;8.910;2024-03-08T05:16:06;0.50;99.90
33095;DHT22;19459;53.044;8.910;2024-03-08T05:18:33;0.50;99.90
33095;DHT22;19459;53.044;8.910;2024-03-08T05:21:00;0.50;99.90
33095;DHT22;19459;53.044;8.910;2024-03-08T05:23:25;0.50;99.90
33095;DHT22;19459;53.044;8.910;2024-03-08T05:25:51;0.50;99.90
33095;DHT22;19459;53.044;8.910;2024-03-08T05:28:17;0.50;99.90
33095;DHT22;19459;53.044;8.910;2024-03-08T05:30:43;0.50;99.90
33095;DHT22;19459;53.044;8.910;2024-03-08T05:33:09;0.50;99.90
33095;DHT22;19459;53.044;8.910;2024-03-08T05:35:36;0.50;99.90
33095;DHT22;19459;53.044;8.910;2024-03-08T05:38:02;0.50;99.90
33095;DHT22;19459;53.044;8.910;2024-03-08T05:40:28;0.50;99.90
33095;DHT22;19459;53.044;8.910;2024-03-08T05:42:58;0.50;99.90
33095;DHT22;19459;53.044;8.910;2024-03-08T05:45:25;0.50;99.90
33095;DHT22;19459;53.044;8.910;2024-03-08T05:47:51;0.50;99.90
33095;DHT22;19459;53.044;8.910;2024-03-08T05:50:18;0.50;99.90
33095;DHT22;19459;53.044;8.910;2024-03-08T05:52:44;0.50;99.90
33095;DHT22;19459;53.044;8.910;2024-03-08T05:55:10;0.50;99.90
33095;DHT22;19459;53.044;8.910;2024-03-08T05:57:42;0.50;99.90
33095;DHT22;19459;53.044;8.910;2024-03-08T06:00:09;0.50;99.90
33095;DHT22;19459;53.044;8.910;2024-03-08T06:02:37;0.50;99.90
33095;DHT22;19459;53.044;8.910;2024-03-08T06:05:10;0.50;99.90
33095;DHT22;19459;53.044;8.910;2024-03-08T06:07:37;0.50;99.90
33095;DHT22;19459;53.044;8.910;2024-03-08T06:10:09;0.50;99.90
33095;DHT22;19459;53.044;8.910;2024-03-08T06:12:36;0.50;99.90
33095;DHT22;19459;53.044;8.910;2024-03-08T06:15:07;0.60;99.90
33095;DHT22;19459;53.044;8.910;2024-03-08T06:17:35;0.50;99.90
33095;DHT22;19459;53.044;8.910;2024-03-08T06:20:01;0.60;99.90
33095;DHT22;19459;53.044;8.910;2024-03-08T06:22:28;0.60;99.90
33095;DHT22;19459;53.044;8.910;2024-03-08T06:24:56;0.60;99.90
33095;DHT22;19459;53.044;8.910;2024-03-08T06:27:22;0.60;99.90
33095;DHT22;19459;53.044;8.910;2024-03-08T06:29:47;0.60;99.90
33095;DHT22;19459;53.044;8.910;2024-03-08T06:32:14;0.60;99.90
33095;DHT22;19459;53.044;8.910;2024-03-08T06:34:41;0.60;99.90
33095;DHT22;19459;53.044;8.910;2024-03-08T06:37:07;0.70;99.90
33095;DHT22;19459;53.044;8.910;2024-03-08T06:39:32;0.70;99.90
33095;DHT22;19459;53.044;8.910;2024-03-08T06:41:59;0.70;99.90
33095;DHT22;19459;53.044;8.910;2024-03-08T06:44:25;0.80;99.90
33095;DHT22;19459;53.044;8.910;2024-03-08T06:46:51;0.80;99.90
33095;DHT22;19459;53.044;8.910;2024-03-08T06:49:17;0.90;99.90
33095;DHT22;19459;53.044;8.910;2024-03-08T06:51:42;0.90;99.90
33095;DHT22;19459;53.044;8.910;2024-03-08T06:54:08;0.90;99.90
33095;DHT22;19459;53.044;8.910;2024-03-08T06:56:35;1.00;99.90
33095;DHT22;19459;53.044;8.910;2024-03-08T06:59:00;1.00;99.90
33095;DHT22;19459;53.044;8.910;2024-03-08T07:01:28;1.00;99.90
33095;DHT22;19459;53.044;8.910;2024-03-08T07:03:57;1.10;99.90
33095;DHT22;19459;53.044;8.910;2024-03-08T07:06:23;1.10;99.90
33095;DHT22;19459;53.044;8.910;2024-03-08T07:08:49;1.20;99.90
33095;DHT22;19459;53.044;8.910;2024-03-08T07:11:15;1.20;99.90
33095;DHT22;19459;53.044;8.910;2024-03-08T07:13:45;1.20;99.90
33095;DHT22;19459;53.044;8.910;2024-03-08T07:16:11;1.20;99.90
33095;DHT22;19459;53.044;8.910;2024-03-08T07:18:38;1.30;99.90
33095;DHT22;19459;53.044;8.910;2024-03-08T07:21:09;1.30;99.90
33095;DHT22;19459;53.044;8.910;2024-03-08T07:23:36;1.40;99.90
33095;DHT22;19459;53.044;8.910;2024-03-08T07:26:20;1.50;99.90
33095;DHT22;19459;53.044;8.910;2024-03-08T07:28:46;1.60;99.90
33095;DHT22;19459;53.044;8.910;2024-03-08T07:31:12;1.60;99.90
33095;DHT22;19459;53.044;8.910;2024-03-08T07:33:40;1.70;99.90
33095;DHT22;19459;53.044;8.910;2024-03-08T07:36:06;1.80;99.90
33095;DHT22;19459;53.044;8.910;2024-03-08T07:38:32;1.80;99.90
33095;DHT22;19459;53.044;8.910;2024-03-08T07:40:58;1.90;99.90
33095;DHT22;19459;53.044;8.910;2024-03-08T07:43:24;1.90;99.90
33095;DHT22;19459;53.044;8.910;2024-03-08T07:45:49;2.00;99.90
33095;DHT22;19459;53.044;8.910;2024-03-08T07:48:16;2.10;99.90
33095;DHT22;19459;53.044;8.910;2024-03-08T07:50:43;2.20;99.90
33095;DHT22;19459;53.044;8.910;2024-03-08T07:53:09;2.30;99.90
33095;DHT22;19459;53.044;8.910;2024-03-08T07:55:35;2.40;99.90
33095;DHT22;19459;53.044;8.910;2024-03-08T07:58:04;2.60;99.90
33095;DHT22;19459;53.044;8.910;2024-03-08T08:00:30;2.70;99.90
33095;DHT22;19459;53.044;8.910;2024-03-08T08:02:59;2.80;99.90
33095;DHT22;19459;53.044;8.910;2024-03-08T08:05:25;3.00;99.90
33095;DHT22;19459;53.044;8.910;2024-03-08T08:07:51;3.10;99.90
33095;DHT22;19459;53.044;8.910;2024-03-08T08:10:18;3.20;99.90
33095;DHT22;19459;53.044;8.910;2024-03-08T08:12:50;3.30;99.90
33095;DHT22;19459;53.044;8.910;2024-03-08T08:15:18;3.40;99.90
33095;DHT22;19459;53.044;8.910;2024-03-08T08:17:45;3.50;99.90
33095;DHT22;19459;53.044;8.910;2024-03-08T08:20:11;3.60;99.90
33095;DHT22;19459;53.044;8.910;2024-03-08T08:22:41;3.70;99.90
33095;DHT22;19459;53.044;8.910;2024-03-08T08:25:08;3.70;99.90
33095;DHT22;19459;53.044;8.910;2024-03-08T08:27:34;3.90;99.90
33095;DHT22;19459;53.044;8.910;2024-03-08T08:30:05;3.90;99.90
33095;DHT22;19459;53.044;8.910;2024-03-08T08:32:34;4.10;99.90
33095;DHT22;19459;53.044;8.910;2024-03-08T08:35:02;4.30;99.90
33095;DHT22;19459;53.044;8.910;2024-03-08T08:37:32;4.40;99.90
33095;DHT22;19459;53.044;8.910;2024-03-08T08:39:58;4.50;99.90
33095;DHT22;19459;53.044;8.910;2024-03-08T08:42:30;4.60;99.90
33095;DHT22;19459;53.044;8.910;2024-03-08T08:44:57;4.70;99.90
33095;DHT22;19459;53.044;8.910;2024-03-08T08:47:23;4.70;99.90
33095;DHT22;19459;53.044;8.910;2024-03-08T08:49:49;4.80;99.90
33095;DHT22;19459;53.044;8.910;2024-03-08T08:52:16;5.00;99.90
33095;DHT22;19459;53.044;8.910;2024-03-08T08:54:42;5.20;99.90
33095;DHT22;19459;53.044;8.910;2024-03-08T08:57:10;5.30;99.90
33095;DHT22;19459;53.044;8.910;2024-03-08T08:59:36;5.40;99.90
33095;DHT22;19459;53.044;8.910;2024-03-08T09:02:06;5.60;99.90
33095;DHT22;19459;53.044;8.910;2024-03-08T09:04:32;5.80;99.90
33095;DHT22;19459;53.044;8.910;2024-03-08T09:06:58;5.90;99.90
33095;DHT22;19459;53.044;8.910;2024-03-08T09:09:24;6.00;99.90
33095;DHT22;19459;53.044;8.910;2024-03-08T09:11:51;6.20;99.90
33095;DHT22;19459;53.044;8.910;2024-03-08T09:14:17;6.30;99.90
33095;DHT22;19459;53.044;8.910;2024-03-08T09:16:42;6.50;99.90
33095;DHT22;19459;53.044;8.910;2024-03-08T09:19:08;6.60;99.90
33095;DHT22;19459;53.044;8.910;2024-03-08T09:21:36;6.80;99.90
33095;DHT22;19459;53.044;8.910;2024-03-08T09:24:02;6.90;99.90
33095;DHT22;19459;53.044;8.910;2024-03-08T09:26:28;7.00;99.90
33095;DHT22;19459;53.044;8.910;2024-03-08T09:28:54;7.10;99.90
33095;DHT22;19459;53.044;8.910;2024-03-08T09:31:21;7.20;99.90
33095;DHT22;19459;53.044;8.910;2024-03-08T09:33:47;7.40;99.90
33095;DHT22;19459;53.044;8.910;2024-03-08T09:36:13;7.50;99.90
33095;DHT22;19459;53.044;8.910;2024-03-08T09:38:39;7.60;99.90
33095;DHT22;19459;53.044;8.910;2024-03-08T09:41:06;7.30;99.90
33095;DHT22;19459;53.044;8.910;2024-03-08T09:43:32;7.60;99.90
33095;DHT22;19459;53.044;8.910;2024-03-08T09:45:58;8.00;99.90
33095;DHT22;19459;53.044;8.910;2024-03-08T09:48:26;8.20;99.90
33095;DHT22;19459;53.044;8.910;2024-03-08T09:50:52;8.20;99.90
33095;DHT22;19459;53.044;8.910;2024-03-08T09:53:20;8.40;99.90
33095;DHT22;19459;53.044;8.910;2024-03-08T09:55:47;8.70;99.90
33095;DHT22;19459;53.044;8.910;2024-03-08T09:58:15;8.40;99.90
33095;DHT22;19459;53.044;8.910;2024-03-08T10:00:48;8.60;99.90
33095;DHT22;19459;53.044;8.910;2024-03-08T10:03:13;8.70;99.90
33095;DHT22;19459;53.044;8.910;2024-03-08T10:05:42;8.60;99.90
33095;DHT22;19459;53.044;8.910;2024-03-08T10:08:10;8.60;99.90
33095;DHT22;19459;53.044;8.910;2024-03-08T10:10:36;8.70;99.90
33095;DHT22;19459;53.044;8.910;2024-03-08T10:13:06;8.40;99.90
33095;DHT22;19459;53.044;8.910;2024-03-08T10:15:33;8.60;99.90
33095;DHT22;19459;53.044;8.910;2024-03-08T10:17:59;9.00;99.90
33095;DHT22;19459;53.044;8.910;2024-03-08T10:20:25;9.40;99.90
33095;DHT22;19459;53.044;8.910;2024-03-08T10:22:52;9.50;99.90
33095;DHT22;19459;53.044;8.910;2024-03-08T10:25:19;9.10;99.90
33095;DHT22;19459;53.044;8.910;2024-03-08T10:27:46;9.40;99.90
33095;DHT22;19459;53.044;8.910;2024-03-08T10:30:16;9.20;99.90
33095;DHT22;19459;53.044;8.910;2024-03-08T10:32:47;9.40;99.90
33095;DHT22;19459;53.044;8.910;2024-03-08T10:35:13;9.60;99.90
33095;DHT22;19459;53.044;8.910;2024-03-08T10:37:51;9.80;99.90
33095;DHT22;19459;53.044;8.910;2024-03-08T10:40:24;10.00;99.90
33095;DHT22;19459;53.044;8.910;2024-03-08T10:43:00;10.30;99.90
33095;DHT22;19459;53.044;8.910;2024-03-08T10:50:53;10.00;99.90
33095;DHT22;19459;53.044;8.910;2024-03-08T10:53:20;10.20;99.90
33095;DHT22;19459;53.044;8.910;2024-03-08T10:55:46;10.20;99.90
33095;DHT22;19459;53.044;8.910;2024-03-08T10:58:13;10.60;99.90
33095;DHT22;19459;53.044;8.910;2024-03-08T11:00:40;10.50;99.90
33095;DHT22;19459;53.044;8.910;2024-03-08T11:03:07;10.80;99.90
33095;DHT22;19459;53.044;8.910;2024-03-08T11:05:37;11.00;99.90
33095;DHT22;19459;53.044;8.910;2024-03-08T11:08:19;11.20;99.90
33095;DHT22;19459;53.044;8.910;2024-03-08T11:10:49;11.10;99.90
33095;DHT22;19459;53.044;8.910;2024-03-08T11:13:33;11.20;99.90
33095;DHT22;19459;53.044;8.910;2024-03-08T11:15:59;11.30;99.50
33095;DHT22;19459;53.044;8.910;2024-03-08T11:18:26;11.60;99.60
33095;DHT22;19459;53.044;8.910;2024-03-08T11:20:55;11.60;99.60
33095;DHT22;19459;53.044;8.910;2024-03-08T11:23:23;11.40;98.40
33095;DHT22;19459;53.044;8.910;2024-03-08T11:25:50;11.30;99.20
33095;DHT22;19459;53.044;8.910;2024-03-08T11:28:23;11.50;99.30
33095;DHT22;19459;53.044;8.910;2024-03-08T11:33:26;11.80;99.20
33095;DHT22;19459;53.044;8.910;2024-03-08T11:36:10;11.50;98.60
33095;DHT22;19459;53.044;8.910;2024-03-08T11:38:42;11.80;98.90
33095;DHT22;19459;53.044;8.910;2024-03-08T11:41:09;12.10;98.00
33095;DHT22;19459;53.044;8.910;2024-03-08T11:43:40;12.20;97.80
33095;DHT22;19459;53.044;8.910;2024-03-08T11:46:10;12.30;98.00
33095;DHT22;19459;53.044;8.910;2024-03-08T11:48:40;12.30;97.60
33095;DHT22;19459;53.044;8.910;2024-03-08T11:51:11;12.60;97.70
33095;DHT22;19459;53.044;8.910;2024-03-08T11:53:41;12.40;96.90
33095;DHT22;19459;53.044;8.910;2024-03-08T11:56:11;12.30;97.70
33095;DHT22;19459;53.044;8.910;2024-03-08T11:58:38;12.50;97.50
33095;DHT22;19459;53.044;8.910;2024-03-08T12:01:09;12.60;97.40
33095;DHT22;19459;53.044;8.910;2024-03-08T12:03:42;12.60;96.90
33095;DHT22;19459;53.044;8.910;2024-03-08T12:06:11;12.60;97.00
33095;DHT22;19459;53.044;8.910;2024-03-08T12:08:38;12.70;97.10
33095;DHT22;19459;53.044;8.910;2024-03-08T12:11:04;12.40;96.50
33095;DHT22;19459;53.044;8.910;2024-03-08T12:13:32;12.70;97.90
33095;DHT22;19459;53.044;8.910;2024-03-08T12:16:00;12.70;96.70
33095;DHT22;19459;53.044;8.910;2024-03-08T12:18:33;12.00;95.90
33095;DHT22;19459;53.044;8.910;2024-03-08T12:21:07;12.30;97.20
33095;DHT22;19459;53.044;8.910;2024-03-08T12:23:34;12.50;97.50
33095;DHT22;19459;53.044;8.910;2024-03-08T12:26:18;12.70;96.60
33095;DHT22;19459;53.044;8.910;2024-03-08T12:28:49;12.80;96.00
33095;DHT22;19459;53.044;8.910;2024-03-08T12:31:16;13.00;97.00
33095;DHT22;19459;53.044;8.910;2024-03-08T12:33:53;12.90;96.40
33095;DHT22;19459;53.044;8.910;2024-03-08T12:36:21;13.20;96.40
33095;DHT22;19459;53.044;8.910;2024-03-08T12:38:48;13.30;96.10
33095;DHT22;19459;53.044;8.910;2024-03-08T12:41:18;13.10;95.70
33095;DHT22;19459;53.044;8.910;2024-03-08T12:43:48;13.20;96.00
33095;DHT22;19459;53.044;8.910;2024-03-08T12:46:15;13.00;96.10
33095;DHT22;19459;53.044;8.910;2024-03-08T12:48:48;13.00;96.70
33095;DHT22;19459;53.044;8.910;2024-03-08T12:51:14;13.10;96.70
33095;DHT22;19459;53.044;8.910;2024-03-08T12:53:45;12.90;95.60
33095;DHT22;19459;53.044;8.910;2024-03-08T12:56:20;12.90;96.60
33095;DHT22;19459;53.044;8.910;2024-03-08T12:58:54;13.10;96.30
33095;DHT22;19459;53.044;8.910;2024-03-08T13:01:20;13.00;95.80
33095;DHT22;19459;53.044;8.910;2024-03-08T13:03:46;12.60;95.40
33095;DHT22;19459;53.044;8.910;2024-03-08T13:06:12;12.80;96.80
33095;DHT22;19459;53.044;8.910;2024-03-08T13:08:38;12.90;96.40
33095;DHT22;19459;53.044;8.910;2024-03-08T13:11:07;12.90;96.20
33095;DHT22;19459;53.044;8.910;2024-03-08T13:13:33;12.90;96.60
33095;DHT22;19459;53.044;8.910;2024-03-08T13:16:02;12.80;96.80
33095;DHT22;19459;53.044;8.910;2024-03-08T13:18:28;12.70;96.30
33095;DHT22;19459;53.044;8.910;2024-03-08T13:20:54;12.60;96.10
33095;DHT22;19459;53.044;8.910;2024-03-08T13:23:20;12.70;96.60
33095;DHT22;19459;53.044;8.910;2024-03-08T13:25:46;12.70;96.30
33095;DHT22;19459;53.044;8.910;2024-03-08T13:28:13;13.00;96.90
33095;DHT22;19459;53.044;8.910;2024-03-08T13:30:39;13.00;96.60
33095;DHT22;19459;53.044;8.910;2024-03-08T13:33:05;12.90;96.70
33095;DHT22;19459;53.044;8.910;2024-03-08T13:35:32;12.90;96.20
33095;DHT22;19459;53.044;8.910;2024-03-08T13:37:59;13.20;96.90
33095;DHT22;19459;53.044;8.910;2024-03-08T13:40:28;13.20;95.70
33095;DHT22;19459;53.044;8.910;2024-03-08T13:42:54;13.40;97.00
33095;DHT22;19459;53.044;8.910;2024-03-08T13:45:19;13.40;96.00
33095;DHT22;19459;53.044;8.910;2024-03-08T13:47:49;13.20;95.70
33095;DHT22;19459;53.044;8.910;2024-03-08T13:50:19;13.50;96.70
33095;DHT22;19459;53.044;8.910;2024-03-08T13:52:49;13.90;96.80
33095;DHT22;19459;53.044;8.910;2024-03-08T13:55:20;13.80;95.90
33095;DHT22;19459;53.044;8.910;2024-03-08T13:57:48;13.70;95.80
33095;DHT22;19459;53.044;8.910;2024-03-08T14:00:14;13.60;95.30
33095;DHT22;19459;53.044;8.910;2024-03-08T14:02:40;13.40;96.10
33095;DHT22;19459;53.044;8.910;2024-03-08T14:05:07;13.10;95.10
33095;DHT22;19459;53.044;8.910;2024-03-08T14:07:35;13.30;96.30
33095;DHT22;19459;53.044;8.910;2024-03-08T14:10:01;13.20;95.60
33095;DHT22;19459;53.044;8.910;2024-03-08T14:12:27;13.20;95.80
33095;DHT22;19459;53.044;8.910;2024-03-08T14:14:53;13.00;95.60
33095;DHT22;19459;53.044;8.910;2024-03-08T14:17:19;13.10;96.70
33095;DHT22;19459;53.044;8.910;2024-03-08T14:19:44;13.30;95.90
33095;DHT22;19459;53.044;8.910;2024-03-08T14:22:10;13.20;95.80
33095;DHT22;19459;53.044;8.910;2024-03-08T14:24:40;13.20;96.20
33095;DHT22;19459;53.044;8.910;2024-03-08T14:27:08;13.20;96.20
33095;DHT22;19459;53.044;8.910;2024-03-08T14:29:35;13.00;96.10
33095;DHT22;19459;53.044;8.910;2024-03-08T14:32:01;12.50;96.40
33095;DHT22;19459;53.044;8.910;2024-03-08T14:34:29;12.60;96.80
33095;DHT22;19459;53.044;8.910;2024-03-08T14:36:56;12.80;96.70
33095;DHT22;19459;53.044;8.910;2024-03-08T14:39:22;12.70;95.80
33095;DHT22;19459;53.044;8.910;2024-03-08T14:41:52;12.60;96.30
33095;DHT22;19459;53.044;8.910;2024-03-08T14:44:20;12.60;96.40
33095;DHT22;19459;53.044;8.910;2024-03-08T14:46:47;12.60;96.50
33095;DHT22;19459;53.044;8.910;2024-03-08T14:49:14;12.50;96.20
33095;DHT22;19459;53.044;8.910;2024-03-08T14:51:40;12.50;96.50
33095;DHT22;19459;53.044;8.910;2024-03-08T14:54:05;12.50;96.80
33095;DHT22;19459;53.044;8.910;2024-03-08T14:56:32;12.60;97.00
33095;DHT22;19459;53.044;8.910;2024-03-08T14:59:00;12.50;96.40
33095;DHT22;19459;53.044;8.910;2024-03-08T15:01:26;12.20;97.00
33095;DHT22;19459;53.044;8.910;2024-03-08T15:03:55;12.10;97.40
33095;DHT22;19459;53.044;8.910;2024-03-08T15:06:21;12.20;97.40
33095;DHT22;19459;53.044;8.910;2024-03-08T15:08:48;12.10;97.10
33095;DHT22;19459;53.044;8.910;2024-03-08T15:11:14;11.90;97.10
33095;DHT22;19459;53.044;8.910;2024-03-08T15:13:51;11.80;97.20
33095;DHT22;19459;53.044;8.910;2024-03-08T15:16:21;11.60;97.80
33095;DHT22;19459;53.044;8.910;2024-03-08T15:18:49;11.40;97.60
33095;DHT22;19459;53.044;8.910;2024-03-08T15:21:19;11.40;97.90
33095;DHT22;19459;53.044;8.910;2024-03-08T15:23:47;11.40;97.90
33095;DHT22;19459;53.044;8.910;2024-03-08T15:26:18;11.40;98.20
33095;DHT22;19459;53.044;8.910;2024-03-08T15:28:44;11.40;98.10
33095;DHT22;19459;53.044;8.910;2024-03-08T15:31:12;11.20;98.10
33095;DHT22;19459;53.044;8.910;2024-03-08T15:33:39;11.10;98.00
33095;DHT22;19459;53.044;8.910;2024-03-08T15:36:17;11.10;98.30
33095;DHT22;19459;53.044;8.910;2024-03-08T15:38:46;11.00;98.50
33095;DHT22;19459;53.044;8.910;2024-03-08T15:41:13;10.80;98.30
33095;DHT22;19459;53.044;8.910;2024-03-08T15:43:40;10.60;98.50
33095;DHT22;19459;53.044;8.910;2024-03-08T15:46:07;10.50;98.60
33095;DHT22;19459;53.044;8.910;2024-03-08T15:48:36;10.30;98.90